ELY5196 LYBE-LLBG
Flight info
| Callsign | ELY5196 |
|---|---|
| Flight time | N/A |
| Altitude | 35000 |
| Route | TPL DCT NISVA N131 RODIP UN131 SUDES/N0444F370 UN131 KULAR UT39 TOMBI DCT IDAKU L35 PIKOG L609 ZUKKO |
| Aircraft | B738/M-SDE2E3FGHIRWXY/LB1 |
Departure
| Time | 2026-04-27 14:24 |
|---|---|
| Airport | Belgrade Nikola Tesla Airport (LYBE) |
Arrival
| Time | N/A |
|---|---|
| Airport | Ben Gurion International Airport (LLBG) |
| Time | Latitude | Longitude | Altitude | Speed | Heading |
|---|---|---|---|---|---|
| 2026-04-27 13:29 | 44.81972 | 20.29319 | 306 ft | 0 kts | 302° |
| 2026-04-27 14:18 | 44.81964 | 20.29336 | 306 ft | 4 kts | 302° |
| 2026-04-27 14:18 | 44.81953 | 20.29362 | 306 ft | 4 kts | 308° |
| 2026-04-27 14:18 | 44.81935 | 20.29378 | 305 ft | 4 kts | 11° |
| 2026-04-27 14:19 | 44.81922 | 20.29372 | 306 ft | 1 kts | 32° |
| 2026-04-27 14:20 | 44.81925 | 20.29374 | 306 ft | 2 kts | 32° |
| 2026-04-27 14:21 | 44.81952 | 20.29397 | 306 ft | 8 kts | 32° |
| 2026-04-27 14:21 | 44.82013 | 20.29451 | 306 ft | 13 kts | 32° |
| 2026-04-27 14:21 | 44.82103 | 20.29530 | 309 ft | 17 kts | 32° |
| 2026-04-27 14:21 | 44.82211 | 20.29627 | 309 ft | 19 kts | 32° |
| 2026-04-27 14:22 | 44.82311 | 20.29717 | 307 ft | 13 kts | 32° |
| 2026-04-27 14:22 | 44.82342 | 20.29789 | 308 ft | 8 kts | 105° |
| 2026-04-27 14:22 | 44.82335 | 20.29808 | 307 ft | 0 kts | 122° |
| 2026-04-27 14:23 | 44.82294 | 20.29899 | 305 ft | 40 kts | 122° |
| 2026-04-27 14:24 | 44.82016 | 20.30525 | 306 ft | 109 kts | 122° |
| 2026-04-27 14:24 | 44.81506 | 20.31674 | 310 ft | 165 kts | 120° |
| 2026-04-27 14:24 | 44.80875 | 20.33140 | 812 ft | 176 kts | 118° |
| 2026-04-27 14:24 | 44.80269 | 20.34603 | 1741 ft | 170 kts | 120° |
| 2026-04-27 14:25 | 44.79638 | 20.36030 | 2573 ft | 173 kts | 122° |
| 2026-04-27 14:25 | 44.78999 | 20.37453 | 3349 ft | 175 kts | 122° |
| 2026-04-27 14:25 | 44.78316 | 20.38969 | 3814 ft | 197 kts | 121° |
| 2026-04-27 14:25 | 44.77425 | 20.40609 | 4016 ft | 223 kts | 133° |
| 2026-04-27 14:26 | 44.76261 | 20.42241 | 4245 ft | 250 kts | 135° |
| 2026-04-27 14:26 | 44.74948 | 20.44026 | 4672 ft | 270 kts | 135° |
| 2026-04-27 14:26 | 44.73586 | 20.45859 | 5436 ft | 277 kts | 136° |
| 2026-04-27 14:26 | 44.72179 | 20.47752 | 6232 ft | 283 kts | 137° |
| 2026-04-27 14:27 | 44.70739 | 20.49702 | 6936 ft | 290 kts | 137° |
| 2026-04-27 14:27 | 44.69278 | 20.51695 | 7697 ft | 294 kts | 136° |
| 2026-04-27 14:27 | 44.67796 | 20.53725 | 8444 ft | 298 kts | 136° |
| 2026-04-27 14:27 | 44.66320 | 20.55751 | 9174 ft | 303 kts | 136° |
| 2026-04-27 14:28 | 44.64788 | 20.57856 | 9882 ft | 310 kts | 136° |
| 2026-04-27 14:28 | 44.63222 | 20.60010 | 10399 ft | 323 kts | 136° |